sensor_id;sensor_type;location;lat;lon;timestamp;P1;durP1;ratioP1;P2;durP2;ratioP2
20236;SDS011;10277;54.386;18.596;2022-09-09T00:00:31;5.78;;;2.20;;
20236;SDS011;10277;54.386;18.596;2022-09-09T00:06:06;5.80;;;2.20;;
20236;SDS011;10277;54.386;18.596;2022-09-09T00:11:13;4.70;;;2.30;;
20236;SDS011;10277;54.386;18.596;2022-09-09T00:16:27;5.87;;;2.37;;
20236;SDS011;10277;54.386;18.596;2022-09-09T00:21:38;4.72;;;2.05;;
20236;SDS011;10277;54.386;18.596;2022-09-09T00:26:47;5.75;;;2.20;;
20236;SDS011;10277;54.386;18.596;2022-09-09T00:32:00;5.25;;;2.20;;
20236;SDS011;10277;54.386;18.596;2022-09-09T00:37:08;5.57;;;2.00;;
20236;SDS011;10277;54.386;18.596;2022-09-09T00:58:06;5.90;;;2.17;;
20236;SDS011;10277;54.386;18.596;2022-09-09T01:14:02;6.60;;;2.30;;
20236;SDS011;10277;54.386;18.596;2022-09-09T01:19:10;4.88;;;1.92;;
20236;SDS011;10277;54.386;18.596;2022-09-09T01:29:56;4.65;;;2.10;;
20236;SDS011;10277;54.386;18.596;2022-09-09T01:35:00;4.57;;;2.15;;
20236;SDS011;10277;54.386;18.596;2022-09-09T01:40:07;3.37;;;2.07;;
20236;SDS011;10277;54.386;18.596;2022-09-09T01:45:15;5.57;;;2.08;;
20236;SDS011;10277;54.386;18.596;2022-09-09T01:50:23;3.85;;;2.20;;
20236;SDS011;10277;54.386;18.596;2022-09-09T01:55:33;4.82;;;2.13;;
20236;SDS011;10277;54.386;18.596;2022-09-09T02:00:43;4.20;;;2.20;;
20236;SDS011;10277;54.386;18.596;2022-09-09T02:21:37;4.00;;;2.00;;
20236;SDS011;10277;54.386;18.596;2022-09-09T02:26:41;5.22;;;2.10;;
20236;SDS011;10277;54.386;18.596;2022-09-09T02:31:47;3.97;;;2.00;;
20236;SDS011;10277;54.386;18.596;2022-09-09T02:36:58;3.43;;;2.10;;
20236;SDS011;10277;54.386;18.596;2022-09-09T02:42:05;4.75;;;2.33;;
20236;SDS011;10277;54.386;18.596;2022-09-09T02:47:23;4.05;;;2.30;;
20236;SDS011;10277;54.386;18.596;2022-09-09T02:57:38;7.68;;;2.40;;
20236;SDS011;10277;54.386;18.596;2022-09-09T03:02:45;5.05;;;2.20;;
20236;SDS011;10277;54.386;18.596;2022-09-09T03:07:47;7.80;;;2.67;;
20236;SDS011;10277;54.386;18.596;2022-09-09T03:12:56;9.88;;;2.50;;
20236;SDS011;10277;54.386;18.596;2022-09-09T03:18:03;6.50;;;2.77;;
20236;SDS011;10277;54.386;18.596;2022-09-09T03:23:07;5.13;;;2.47;;
20236;SDS011;10277;54.386;18.596;2022-09-09T03:28:17;6.25;;;3.13;;
20236;SDS011;10277;54.386;18.596;2022-09-09T03:33:23;5.23;;;3.30;;
20236;SDS011;10277;54.386;18.596;2022-09-09T03:38:28;6.00;;;3.70;;
20236;SDS011;10277;54.386;18.596;2022-09-09T03:43:37;8.53;;;3.97;;
20236;SDS011;10277;54.386;18.596;2022-09-09T03:48:40;7.23;;;3.80;;
20236;SDS011;10277;54.386;18.596;2022-09-09T03:53:44;8.07;;;4.30;;
20236;SDS011;10277;54.386;18.596;2022-09-09T03:58:50;7.28;;;4.60;;
20236;SDS011;10277;54.386;18.596;2022-09-09T04:03:56;10.18;;;4.85;;
20236;SDS011;10277;54.386;18.596;2022-09-09T04:09:03;8.23;;;5.47;;
20236;SDS011;10277;54.386;18.596;2022-09-09T04:14:09;9.23;;;6.75;;
20236;SDS011;10277;54.386;18.596;2022-09-09T04:19:12;7.83;;;5.10;;
20236;SDS011;10277;54.386;18.596;2022-09-09T04:24:18;8.25;;;4.60;;
20236;SDS011;10277;54.386;18.596;2022-09-09T04:29:23;10.82;;;5.22;;
20236;SDS011;10277;54.386;18.596;2022-09-09T04:34:26;10.83;;;7.23;;
20236;SDS011;10277;54.386;18.596;2022-09-09T04:39:29;7.78;;;5.22;;
20236;SDS011;10277;54.386;18.596;2022-09-09T04:44:34;9.43;;;5.03;;
20236;SDS011;10277;54.386;18.596;2022-09-09T04:49:37;11.40;;;5.32;;
20236;SDS011;10277;54.386;18.596;2022-09-09T04:54:43;7.72;;;5.25;;
20236;SDS011;10277;54.386;18.596;2022-09-09T04:59:47;8.90;;;4.95;;
20236;SDS011;10277;54.386;18.596;2022-09-09T05:04:52;8.40;;;5.17;;
20236;SDS011;10277;54.386;18.596;2022-09-09T05:09:54;13.90;;;8.30;;
20236;SDS011;10277;54.386;18.596;2022-09-09T05:14:57;8.80;;;5.40;;
20236;SDS011;10277;54.386;18.596;2022-09-09T05:20:00;7.70;;;5.03;;
20236;SDS011;10277;54.386;18.596;2022-09-09T05:25:05;9.25;;;5.07;;
20236;SDS011;10277;54.386;18.596;2022-09-09T05:30:07;8.80;;;5.32;;
20236;SDS011;10277;54.386;18.596;2022-09-09T05:35:12;11.82;;;6.47;;
20236;SDS011;10277;54.386;18.596;2022-09-09T05:40:15;10.07;;;4.70;;
20236;SDS011;10277;54.386;18.596;2022-09-09T05:45:20;6.63;;;4.03;;
20236;SDS011;10277;54.386;18.596;2022-09-09T05:50:29;8.63;;;4.20;;
20236;SDS011;10277;54.386;18.596;2022-09-09T05:55:33;7.10;;;3.90;;
20236;SDS011;10277;54.386;18.596;2022-09-09T06:00:38;6.30;;;3.90;;
20236;SDS011;10277;54.386;18.596;2022-09-09T06:05:41;6.50;;;3.67;;
20236;SDS011;10277;54.386;18.596;2022-09-09T06:10:43;6.63;;;3.97;;
20236;SDS011;10277;54.386;18.596;2022-09-09T06:15:49;7.57;;;3.60;;
20236;SDS011;10277;54.386;18.596;2022-09-09T06:20:56;6.47;;;3.80;;
20236;SDS011;10277;54.386;18.596;2022-09-09T06:26:13;5.03;;;3.40;;
20236;SDS011;10277;54.386;18.596;2022-09-09T06:31:19;5.37;;;3.23;;
20236;SDS011;10277;54.386;18.596;2022-09-09T06:36:32;5.07;;;3.20;;
20236;SDS011;10277;54.386;18.596;2022-09-09T06:41:35;6.60;;;3.08;;
20236;SDS011;10277;54.386;18.596;2022-09-09T06:46:38;4.57;;;3.00;;
20236;SDS011;10277;54.386;18.596;2022-09-09T06:51:43;6.83;;;3.87;;
20236;SDS011;10277;54.386;18.596;2022-09-09T06:56:47;4.97;;;3.43;;
20236;SDS011;10277;54.386;18.596;2022-09-09T07:01:57;7.95;;;3.20;;
20236;SDS011;10277;54.386;18.596;2022-09-09T07:07:02;4.30;;;2.97;;
20236;SDS011;10277;54.386;18.596;2022-09-09T07:12:05;4.93;;;3.25;;
20236;SDS011;10277;54.386;18.596;2022-09-09T07:17:14;5.38;;;3.13;;
20236;SDS011;10277;54.386;18.596;2022-09-09T07:22:19;5.63;;;3.55;;
20236;SDS011;10277;54.386;18.596;2022-09-09T07:27:24;5.37;;;3.57;;
20236;SDS011;10277;54.386;18.596;2022-09-09T07:32:27;8.70;;;3.27;;
20236;SDS011;10277;54.386;18.596;2022-09-09T07:37:32;6.00;;;3.50;;
20236;SDS011;10277;54.386;18.596;2022-09-09T07:42:40;8.52;;;5.70;;
20236;SDS011;10277;54.386;18.596;2022-09-09T07:47:46;7.20;;;3.85;;
20236;SDS011;10277;54.386;18.596;2022-09-09T07:52:51;7.05;;;3.72;;
20236;SDS011;10277;54.386;18.596;2022-09-09T07:57:57;6.20;;;3.63;;
20236;SDS011;10277;54.386;18.596;2022-09-09T08:02:59;5.53;;;3.30;;
20236;SDS011;10277;54.386;18.596;2022-09-09T08:08:04;9.33;;;3.30;;
20236;SDS011;10277;54.386;18.596;2022-09-09T08:13:08;4.37;;;3.30;;
20236;SDS011;10277;54.386;18.596;2022-09-09T08:18:20;6.67;;;3.43;;
20236;SDS011;10277;54.386;18.596;2022-09-09T08:23:27;8.23;;;3.80;;
20236;SDS011;10277;54.386;18.596;2022-09-09T08:28:29;6.73;;;3.90;;
20236;SDS011;10277;54.386;18.596;2022-09-09T08:33:33;7.90;;;3.57;;
20236;SDS011;10277;54.386;18.596;2022-09-09T08:38:40;11.27;;;4.60;;
20236;SDS011;10277;54.386;18.596;2022-09-09T08:43:49;8.03;;;3.80;;
20236;SDS011;10277;54.386;18.596;2022-09-09T08:49:13;7.10;;;3.67;;
20236;SDS011;10277;54.386;18.596;2022-09-09T08:54:18;6.13;;;3.30;;
20236;SDS011;10277;54.386;18.596;2022-09-09T08:59:45;6.77;;;3.63;;
20236;SDS011;10277;54.386;18.596;2022-09-09T09:15:55;5.67;;;4.73;;
20236;SDS011;10277;54.386;18.596;2022-09-09T09:26:07;8.60;;;5.07;;
20236;SDS011;10277;54.386;18.596;2022-09-09T09:31:12;6.93;;;4.03;;
20236;SDS011;10277;54.386;18.596;2022-09-09T09:36:24;11.67;;;4.63;;
20236;SDS011;10277;54.386;18.596;2022-09-09T09:41:31;5.73;;;4.17;;
20236;SDS011;10277;54.386;18.596;2022-09-09T09:46:34;6.60;;;4.00;;
20236;SDS011;10277;54.386;18.596;2022-09-09T09:51:46;6.23;;;4.07;;
20236;SDS011;10277;54.386;18.596;2022-09-09T09:56:51;5.37;;;4.10;;
20236;SDS011;10277;54.386;18.596;2022-09-09T10:02:05;5.60;;;4.07;;
20236;SDS011;10277;54.386;18.596;2022-09-09T10:07:10;10.33;;;5.00;;
20236;SDS011;10277;54.386;18.596;2022-09-09T10:12:29;6.97;;;4.90;;
20236;SDS011;10277;54.386;18.596;2022-09-09T10:22:38;7.77;;;5.70;;
20236;SDS011;10277;54.386;18.596;2022-09-09T10:38:17;8.00;;;5.87;;
20236;SDS011;10277;54.386;18.596;2022-09-09T10:54:28;14.37;;;6.03;;
20236;SDS011;10277;54.386;18.596;2022-09-09T10:59:33;6.97;;;5.30;;
20236;SDS011;10277;54.386;18.596;2022-09-09T11:04:40;8.80;;;6.67;;
20236;SDS011;10277;54.386;18.596;2022-09-09T11:09:49;6.93;;;5.77;;
20236;SDS011;10277;54.386;18.596;2022-09-09T11:14:59;9.40;;;5.70;;
20236;SDS011;10277;54.386;18.596;2022-09-09T11:20:06;8.10;;;6.10;;
20236;SDS011;10277;54.386;18.596;2022-09-09T11:25:26;8.60;;;6.13;;
20236;SDS011;10277;54.386;18.596;2022-09-09T11:30:38;9.53;;;5.83;;
20236;SDS011;10277;54.386;18.596;2022-09-09T11:41:12;6.90;;;5.77;;
20236;SDS011;10277;54.386;18.596;2022-09-09T11:46:35;8.23;;;5.90;;
20236;SDS011;10277;54.386;18.596;2022-09-09T11:51:40;7.80;;;5.97;;
20236;SDS011;10277;54.386;18.596;2022-09-09T11:56:43;7.50;;;5.90;;
20236;SDS011;10277;54.386;18.596;2022-09-09T12:02:35;8.07;;;5.70;;
20236;SDS011;10277;54.386;18.596;2022-09-09T12:17:45;11.97;;;6.90;;
20236;SDS011;10277;54.386;18.596;2022-09-09T12:27:59;9.07;;;7.03;;
20236;SDS011;10277;54.386;18.596;2022-09-09T12:33:11;8.10;;;6.23;;
20236;SDS011;10277;54.386;18.596;2022-09-09T12:38:37;10.03;;;6.40;;
20236;SDS011;10277;54.386;18.596;2022-09-09T12:43:45;9.53;;;6.90;;
20236;SDS011;10277;54.386;18.596;2022-09-09T12:48:47;10.57;;;7.30;;
20236;SDS011;10277;54.386;18.596;2022-09-09T12:53:50;12.07;;;7.83;;
20236;SDS011;10277;54.386;18.596;2022-09-09T12:58:53;10.57;;;7.77;;
20236;SDS011;10277;54.386;18.596;2022-09-09T13:03:56;8.87;;;7.00;;
20236;SDS011;10277;54.386;18.596;2022-09-09T13:08:59;8.83;;;7.30;;
20236;SDS011;10277;54.386;18.596;2022-09-09T13:14:02;7.90;;;6.47;;
20236;SDS011;10277;54.386;18.596;2022-09-09T13:19:08;8.47;;;7.23;;
20236;SDS011;10277;54.386;18.596;2022-09-09T13:29:35;7.77;;;6.70;;
20236;SDS011;10277;54.386;18.596;2022-09-09T13:34:39;8.03;;;6.60;;
20236;SDS011;10277;54.386;18.596;2022-09-09T13:39:52;6.90;;;6.13;;
20236;SDS011;10277;54.386;18.596;2022-09-09T13:44:58;7.63;;;6.50;;
20236;SDS011;10277;54.386;18.596;2022-09-09T13:50:18;9.00;;;7.60;;
20236;SDS011;10277;54.386;18.596;2022-09-09T13:55:21;8.73;;;7.80;;
20236;SDS011;10277;54.386;18.596;2022-09-09T14:00:24;10.73;;;7.43;;
20236;SDS011;10277;54.386;18.596;2022-09-09T14:05:27;12.13;;;8.80;;
20236;SDS011;10277;54.386;18.596;2022-09-09T14:10:34;17.13;;;10.33;;
20236;SDS011;10277;54.386;18.596;2022-09-09T14:15:42;17.83;;;10.10;;
20236;SDS011;10277;54.386;18.596;2022-09-09T14:20:44;12.23;;;8.87;;
20236;SDS011;10277;54.386;18.596;2022-09-09T14:25:47;10.97;;;9.57;;
20236;SDS011;10277;54.386;18.596;2022-09-09T14:30:51;12.33;;;8.43;;
20236;SDS011;10277;54.386;18.596;2022-09-09T14:36:00;11.40;;;8.97;;
20236;SDS011;10277;54.386;18.596;2022-09-09T14:41:03;10.60;;;9.33;;
20236;SDS011;10277;54.386;18.596;2022-09-09T14:46:11;13.20;;;9.60;;
20236;SDS011;10277;54.386;18.596;2022-09-09T14:51:22;12.57;;;9.47;;
20236;SDS011;10277;54.386;18.596;2022-09-09T14:56:28;14.00;;;10.27;;
20236;SDS011;10277;54.386;18.596;2022-09-09T15:01:32;14.63;;;10.27;;
20236;SDS011;10277;54.386;18.596;2022-09-09T15:06:35;13.47;;;10.53;;
20236;SDS011;10277;54.386;18.596;2022-09-09T15:11:41;13.00;;;10.63;;
20236;SDS011;10277;54.386;18.596;2022-09-09T15:16:44;14.97;;;11.07;;
20236;SDS011;10277;54.386;18.596;2022-09-09T15:21:49;18.10;;;10.77;;
20236;SDS011;10277;54.386;18.596;2022-09-09T15:26:51;13.10;;;10.73;;
20236;SDS011;10277;54.386;18.596;2022-09-09T15:31:56;14.47;;;11.13;;
20236;SDS011;10277;54.386;18.596;2022-09-09T15:36:58;14.07;;;10.60;;
20236;SDS011;10277;54.386;18.596;2022-09-09T15:42:02;17.40;;;10.57;;
20236;SDS011;10277;54.386;18.596;2022-09-09T15:47:04;20.07;;;15.43;;
20236;SDS011;10277;54.386;18.596;2022-09-09T15:52:10;14.10;;;12.20;;
20236;SDS011;10277;54.386;18.596;2022-09-09T15:57:16;16.33;;;11.87;;
20236;SDS011;10277;54.386;18.596;2022-09-09T16:02:18;16.43;;;11.30;;
20236;SDS011;10277;54.386;18.596;2022-09-09T16:07:20;14.27;;;11.37;;
20236;SDS011;10277;54.386;18.596;2022-09-09T16:12:25;18.33;;;11.47;;
20236;SDS011;10277;54.386;18.596;2022-09-09T16:17:32;16.00;;;12.30;;
20236;SDS011;10277;54.386;18.596;2022-09-09T16:22:42;16.90;;;12.23;;
20236;SDS011;10277;54.386;18.596;2022-09-09T16:27:44;17.80;;;13.17;;
20236;SDS011;10277;54.386;18.596;2022-09-09T16:32:50;17.30;;;12.57;;
20236;SDS011;10277;54.386;18.596;2022-09-09T16:37:56;15.83;;;12.03;;
20236;SDS011;10277;54.386;18.596;2022-09-09T16:43:03;17.50;;;12.90;;
20236;SDS011;10277;54.386;18.596;2022-09-09T16:48:08;19.67;;;13.63;;
20236;SDS011;10277;54.386;18.596;2022-09-09T16:53:13;17.83;;;13.93;;
20236;SDS011;10277;54.386;18.596;2022-09-09T16:58:21;19.13;;;13.93;;
20236;SDS011;10277;54.386;18.596;2022-09-09T17:03:26;20.20;;;14.80;;
20236;SDS011;10277;54.386;18.596;2022-09-09T17:08:29;22.17;;;15.93;;
20236;SDS011;10277;54.386;18.596;2022-09-09T17:13:37;23.97;;;16.03;;
20236;SDS011;10277;54.386;18.596;2022-09-09T17:18:42;23.63;;;17.93;;
20236;SDS011;10277;54.386;18.596;2022-09-09T17:23:50;28.60;;;19.50;;
20236;SDS011;10277;54.386;18.596;2022-09-09T17:28:53;31.67;;;22.23;;
20236;SDS011;10277;54.386;18.596;2022-09-09T17:34:01;27.37;;;19.30;;
20236;SDS011;10277;54.386;18.596;2022-09-09T17:39:06;31.57;;;20.13;;
20236;SDS011;10277;54.386;18.596;2022-09-09T17:44:09;28.67;;;20.07;;
20236;SDS011;10277;54.386;18.596;2022-09-09T17:49:14;28.43;;;19.60;;
20236;SDS011;10277;54.386;18.596;2022-09-09T17:54:19;32.60;;;23.20;;
20236;SDS011;10277;54.386;18.596;2022-09-09T17:59:24;31.27;;;21.37;;
20236;SDS011;10277;54.386;18.596;2022-09-09T18:04:27;28.23;;;20.37;;
20236;SDS011;10277;54.386;18.596;2022-09-09T18:09:32;30.77;;;20.30;;
20236;SDS011;10277;54.386;18.596;2022-09-09T18:14:38;29.67;;;21.37;;
20236;SDS011;10277;54.386;18.596;2022-09-09T18:19:43;32.57;;;22.43;;
20236;SDS011;10277;54.386;18.596;2022-09-09T18:24:47;39.20;;;29.97;;
20236;SDS011;10277;54.386;18.596;2022-09-09T18:29:51;32.57;;;22.87;;
20236;SDS011;10277;54.386;18.596;2022-09-09T18:34:55;40.93;;;26.63;;
20236;SDS011;10277;54.386;18.596;2022-09-09T18:40:02;33.57;;;24.80;;
20236;SDS011;10277;54.386;18.596;2022-09-09T18:45:08;28.87;;;22.37;;
20236;SDS011;10277;54.386;18.596;2022-09-09T18:50:11;33.10;;;23.33;;
20236;SDS011;10277;54.386;18.596;2022-09-09T18:55:14;29.20;;;22.90;;
20236;SDS011;10277;54.386;18.596;2022-09-09T19:00:17;29.13;;;23.10;;
20236;SDS011;10277;54.386;18.596;2022-09-09T19:05:19;30.50;;;22.30;;
20236;SDS011;10277;54.386;18.596;2022-09-09T19:10:24;27.10;;;21.47;;
20236;SDS011;10277;54.386;18.596;2022-09-09T19:15:26;30.60;;;23.20;;
20236;SDS011;10277;54.386;18.596;2022-09-09T19:20:31;33.33;;;24.30;;
20236;SDS011;10277;54.386;18.596;2022-09-09T19:25:35;35.10;;;27.73;;
20236;SDS011;10277;54.386;18.596;2022-09-09T19:30:41;33.53;;;24.37;;
20236;SDS011;10277;54.386;18.596;2022-09-09T19:36:03;28.47;;;23.20;;
20236;SDS011;10277;54.386;18.596;2022-09-09T19:41:08;28.70;;;21.57;;
20236;SDS011;10277;54.386;18.596;2022-09-09T19:46:13;22.97;;;20.23;;
20236;SDS011;10277;54.386;18.596;2022-09-09T19:51:20;24.23;;;20.50;;
20236;SDS011;10277;54.386;18.596;2022-09-09T19:56:24;22.97;;;19.53;;
20236;SDS011;10277;54.386;18.596;2022-09-09T20:01:30;29.20;;;19.47;;
20236;SDS011;10277;54.386;18.596;2022-09-09T20:06:41;26.03;;;20.47;;
20236;SDS011;10277;54.386;18.596;2022-09-09T20:11:45;25.27;;;20.53;;
20236;SDS011;10277;54.386;18.596;2022-09-09T20:16:49;24.67;;;19.50;;
20236;SDS011;10277;54.386;18.596;2022-09-09T20:21:51;24.00;;;19.80;;
20236;SDS011;10277;54.386;18.596;2022-09-09T20:26:56;25.67;;;20.50;;
20236;SDS011;10277;54.386;18.596;2022-09-09T20:31:59;25.50;;;20.10;;
20236;SDS011;10277;54.386;18.596;2022-09-09T20:37:02;25.47;;;21.00;;
20236;SDS011;10277;54.386;18.596;2022-09-09T20:42:06;25.73;;;20.97;;
20236;SDS011;10277;54.386;18.596;2022-09-09T20:47:09;28.30;;;24.70;;
20236;SDS011;10277;54.386;18.596;2022-09-09T20:52:20;28.17;;;24.13;;
20236;SDS011;10277;54.386;18.596;2022-09-09T20:57:23;25.60;;;21.00;;
20236;SDS011;10277;54.386;18.596;2022-09-09T21:02:31;24.57;;;19.23;;
20236;SDS011;10277;54.386;18.596;2022-09-09T21:07:38;25.13;;;20.30;;
20236;SDS011;10277;54.386;18.596;2022-09-09T21:12:40;25.73;;;20.90;;
20236;SDS011;10277;54.386;18.596;2022-09-09T21:17:43;27.23;;;21.93;;
20236;SDS011;10277;54.386;18.596;2022-09-09T21:22:47;28.33;;;23.00;;
20236;SDS011;10277;54.386;18.596;2022-09-09T21:27:51;30.47;;;24.27;;
20236;SDS011;10277;54.386;18.596;2022-09-09T21:32:57;30.93;;;25.03;;
20236;SDS011;10277;54.386;18.596;2022-09-09T21:38:05;28.13;;;23.27;;
20236;SDS011;10277;54.386;18.596;2022-09-09T21:43:07;29.57;;;23.77;;
20236;SDS011;10277;54.386;18.596;2022-09-09T21:48:20;29.70;;;24.13;;
20236;SDS011;10277;54.386;18.596;2022-09-09T21:53:24;31.97;;;24.00;;
20236;SDS011;10277;54.386;18.596;2022-09-09T21:58:29;26.10;;;22.37;;
20236;SDS011;10277;54.386;18.596;2022-09-09T22:03:31;28.53;;;22.53;;
20236;SDS011;10277;54.386;18.596;2022-09-09T22:08:34;27.30;;;21.67;;
20236;SDS011;10277;54.386;18.596;2022-09-09T22:13:37;26.90;;;21.03;;
20236;SDS011;10277;54.386;18.596;2022-09-09T22:18:39;25.93;;;20.40;;
20236;SDS011;10277;54.386;18.596;2022-09-09T22:23:49;25.03;;;19.83;;
20236;SDS011;10277;54.386;18.596;2022-09-09T22:28:52;24.63;;;19.87;;
20236;SDS011;10277;54.386;18.596;2022-09-09T22:34:04;25.17;;;18.67;;
20236;SDS011;10277;54.386;18.596;2022-09-09T22:39:08;26.25;;;22.08;;
20236;SDS011;10277;54.386;18.596;2022-09-09T22:44:13;28.42;;;22.15;;
20236;SDS011;10277;54.386;18.596;2022-09-09T22:49:16;23.40;;;20.90;;
20236;SDS011;10277;54.386;18.596;2022-09-09T22:54:18;24.87;;;20.87;;
20236;SDS011;10277;54.386;18.596;2022-09-09T22:59:23;23.87;;;20.10;;
20236;SDS011;10277;54.386;18.596;2022-09-09T23:04:25;22.90;;;19.45;;
20236;SDS011;10277;54.386;18.596;2022-09-09T23:09:28;23.27;;;19.38;;
20236;SDS011;10277;54.386;18.596;2022-09-09T23:14:31;22.15;;;18.48;;
20236;SDS011;10277;54.386;18.596;2022-09-09T23:19:37;21.30;;;18.38;;
20236;SDS011;10277;54.386;18.596;2022-09-09T23:24:43;21.63;;;18.17;;
20236;SDS011;10277;54.386;18.596;2022-09-09T23:29:48;19.77;;;17.48;;
20236;SDS011;10277;54.386;18.596;2022-09-09T23:34:50;22.65;;;18.08;;
20236;SDS011;10277;54.386;18.596;2022-09-09T23:39:57;21.77;;;17.38;;
20236;SDS011;10277;54.386;18.596;2022-09-09T23:45:05;21.40;;;16.87;;
20236;SDS011;10277;54.386;18.596;2022-09-09T23:50:07;22.77;;;17.80;;
20236;SDS011;10277;54.386;18.596;2022-09-09T23:55:11;19.45;;;17.20;;
